Time;durP1;ratioP1;P1;durP2;ratioP2;P2;SDS_P1;SDS_P2;PMS_P1;PMS_P2;Temp;Humidity;BMP_temperature;BMP_pressure;BME280_temperature;BME280_humidity;BME280_pressure;Samples;Min_cycle;Max_cycle;Signal;HPM_P1;HPM_P2
2021/12/22 00:00:13;;;;;;;4.20;2.95;;;-3.20;99.90;;;;;;5086792;28;20165;-69
2021/12/22 00:02:46;;;;;;;12.57;5.40;;;-3.20;99.90;;;;;;5086709;28;20272;-68
2021/12/22 00:05:23;;;;;;;3.40;3.20;;;-3.20;99.90;;;;;;5086833;28;20196;-68
2021/12/22 00:07:49;;;;;;;5.20;4.68;;;-3.20;99.90;;;;;;5069585;28;20372;-70
2021/12/22 00:10:16;;;;;;;5.53;3.70;;;-3.20;99.90;;;;;;5086729;28;20512;-67
2021/12/22 00:12:42;;;;;;;6.65;5.10;;;-3.20;99.90;;;;;;5086475;28;20452;-70
2021/12/22 00:15:08;;;;;;;6.07;4.50;;;-3.30;99.90;;;;;;5064169;28;20181;-67
2021/12/22 00:17:34;;;;;;;2.55;2.35;;;-3.30;99.90;;;;;;5066100;28;20402;-71
2021/12/22 00:20:00;;;;;;;6.03;5.17;;;-3.30;99.90;;;;;;5066479;28;20220;-69
2021/12/22 00:22:25;;;;;;;3.47;3.20;;;-3.30;99.90;;;;;;5066558;28;20301;-70
2021/12/22 00:24:51;;;;;;;2.50;2.40;;;-3.30;99.90;;;;;;5066431;28;20177;-68
2021/12/22 00:27:17;;;;;;;4.97;4.50;;;-3.40;99.90;;;;;;5066097;28;20255;-69
2021/12/22 00:29:47;;;;;;;2.40;2.30;;;-3.40;99.90;;;;;;5066418;28;20166;-68
2021/12/22 00:32:15;;;;;;;3.03;2.90;;;-3.40;99.90;;;;;;5066713;28;20214;-69
2021/12/22 00:34:48;;;;;;;8.23;5.85;;;-3.50;99.90;;;;;;5068639;28;20188;-70
2021/12/22 00:37:16;;;;;;;4.53;4.18;;;-3.50;99.90;;;;;;5069925;28;20289;-70
2021/12/22 00:39:43;;;;;;;6.93;3.65;;;-3.50;99.90;;;;;;5070158;28;20221;-69
2021/12/22 00:42:11;;;;;;;5.57;4.50;;;-3.50;99.90;;;;;;5070328;28;20161;-67
2021/12/22 00:44:37;;;;;;;4.05;2.95;;;-3.50;99.90;;;;;;5070180;28;20189;-71
2021/12/22 00:47:03;;;;;;;3.65;3.42;;;-3.50;99.90;;;;;;5070051;28;20277;-67
2021/12/22 00:49:29;;;;;;;3.43;3.23;;;-3.50;99.90;;;;;;5070177;28;20169;-70
2021/12/22 00:51:55;;;;;;;4.65;4.35;;;-3.50;99.90;;;;;;5070071;28;20403;-67
2021/12/22 00:54:21;;;;;;;3.50;3.30;;;-3.50;99.90;;;;;;5069873;28;20409;-70
2021/12/22 00:56:47;;;;;;;6.13;5.57;;;-3.60;99.90;;;;;;5069643;28;20157;-67
2021/12/22 00:59:12;;;;;;;3.20;2.87;;;-3.60;99.90;;;;;;5069811;28;20451;-70
2021/12/22 01:01:38;;;;;;;3.17;2.97;;;-3.60;99.90;;;;;;5069999;28;20256;-68
2021/12/22 01:04:04;;;;;;;2.83;2.73;;;-3.60;99.90;;;;;;5069630;28;20216;-70
2021/12/22 01:06:30;;;;;;;4.00;3.70;;;-3.70;99.90;;;;;;5069408;28;20467;-67
2021/12/22 01:08:56;;;;;;;3.10;3.00;;;-3.60;99.90;;;;;;5069642;28;20404;-68
2021/12/22 01:11:22;;;;;;;2.50;2.30;;;-3.60;99.90;;;;;;5069588;28;20667;-65
2021/12/22 01:13:48;;;;;;;3.17;2.97;;;-3.60;99.90;;;;;;5069639;28;20687;-70
2021/12/22 01:16:13;;;;;;;7.07;4.80;;;-3.60;99.90;;;;;;5083330;28;20185;-71
2021/12/22 01:18:39;;;;;;;2.23;2.17;;;-3.60;99.90;;;;;;5089503;28;20238;-66
2021/12/22 01:21:16;;;;;;;2.95;2.75;;;-3.70;99.90;;;;;;5089544;28;20333;-69
2021/12/22 01:24:03;;;;;;;2.10;1.98;;;-3.70;99.90;;;;;;5089478;28;20177;-69
2021/12/22 01:26:30;;;;;;;4.28;3.42;;;-3.70;99.90;;;;;;5089204;28;20172;-67
2021/12/22 01:28:56;;;;;;;8.90;7.28;;;-3.70;99.90;;;;;;5089328;28;20243;-68
2021/12/22 01:31:22;;;;;;;6.90;5.47;;;-3.70;99.90;;;;;;5089422;28;20195;-69
2021/12/22 01:33:48;;;;;;;3.53;2.93;;;-3.80;99.90;;;;;;5089333;28;20180;-67
2021/12/22 01:36:14;;;;;;;6.30;4.37;;;-3.80;99.90;;;;;;5089299;28;20153;-69
2021/12/22 01:38:40;;;;;;;3.50;3.27;;;-3.80;99.90;;;;;;5089031;28;20457;-66
2021/12/22 01:41:05;;;;;;;4.87;4.47;;;-3.90;99.90;;;;;;5089228;28;20695;-69
2021/12/22 01:43:31;;;;;;;5.13;3.37;;;-4.00;99.90;;;;;;5089098;28;20431;-66
2021/12/22 01:51:38;;;;;;;1.70;1.70;;;-4.00;99.90;;;;;;5089048;28;20232;-68
2021/12/22 01:54:43;;;;;;;2.15;2.08;;;-4.00;99.90;;;;;;5088897;28;20176;-69
2021/12/22 01:57:11;;;;;;;5.07;4.53;;;-4.00;99.90;;;;;;5066574;28;20184;-68
2021/12/22 01:59:39;;;;;;;3.03;2.83;;;-4.00;99.90;;;;;;5088765;28;20244;-70
2021/12/22 02:02:08;;;;;;;4.90;4.68;;;-4.00;99.90;;;;;;5088540;28;20168;-68
2021/12/22 02:04:35;;;;;;;2.00;1.90;;;-4.00;99.90;;;;;;5088600;28;20185;-71
2021/12/22 02:07:00;;;;;;;4.10;3.60;;;-4.00;99.90;;;;;;5088147;28;20169;-67
2021/12/22 02:09:49;;;;;;;4.60;4.30;;;-4.00;99.90;;;;;;5088568;28;20240;-71
2021/12/22 02:12:15;;;;;;;2.53;2.40;;;-4.00;99.90;;;;;;5088583;28;20168;-68
2021/12/22 02:14:42;;;;;;;3.33;2.53;;;-4.00;99.90;;;;;;5087394;28;20258;-68
2021/12/22 02:17:09;;;;;;;3.33;3.17;;;-4.00;99.90;;;;;;5068252;28;20169;-66
2021/12/22 02:19:40;;;;;;;2.30;2.10;;;-4.10;99.90;;;;;;5068475;28;20285;-69
2021/12/22 02:22:10;;;;;;;4.25;3.85;;;-4.10;99.90;;;;;;5068395;28;20177;-66
2021/12/22 02:24:36;;;;;;;1.17;1.17;;;-4.10;99.90;;;;;;5068409;28;20204;-68
2021/12/22 02:27:07;;;;;;;3.20;2.90;;;-4.10;99.90;;;;;;5067910;28;20236;-69
2021/12/22 02:29:39;;;;;;;3.38;2.95;;;-4.10;99.90;;;;;;5068208;28;20177;-66
2021/12/22 02:32:13;;;;;;;2.30;2.20;;;-4.10;99.90;;;;;;5068151;28;20240;-67
2021/12/22 02:34:45;;;;;;;1.52;1.52;;;-4.10;99.90;;;;;;5068109;28;20189;-69
2021/12/22 02:37:15;;;;;;;4.07;2.55;;;-4.10;99.90;;;;;;5034536;28;20176;-70
2021/12/22 02:39:53;;;;;;;6.40;5.20;;;-4.10;99.90;;;;;;5068042;28;20325;-69
2021/12/22 02:42:23;;;;;;;5.57;5.22;;;-4.10;99.90;;;;;;5067998;28;20362;-69
2021/12/22 02:44:48;;;;;;;2.97;2.78;;;-4.10;99.90;;;;;;5067813;28;20196;-67
2021/12/22 02:47:20;;;;;;;1.90;1.80;;;-4.10;99.90;;;;;;5067618;28;20240;-68
2021/12/22 02:49:46;;;;;;;4.95;3.70;;;-4.10;99.90;;;;;;5067906;28;20161;-67
2021/12/22 02:52:11;;;;;;;6.28;5.88;;;-4.10;99.90;;;;;;5067879;28;20170;-68
2021/12/22 02:54:45;;;;;;;3.10;2.80;;;-4.10;99.90;;;;;;5067790;28;20228;-66
2021/12/22 02:57:27;;;;;;;3.63;2.95;;;-4.10;99.90;;;;;;5066794;28;20450;-70
2021/12/22 03:03:02;;;;;;;4.50;4.10;;;-4.10;99.90;;;;;;5067612;28;20226;-70
2021/12/22 03:05:29;;;;;;;6.13;3.03;;;-4.10;99.90;;;;;;5067583;28;20180;-69
2021/12/22 03:07:55;;;;;;;6.63;4.45;;;-4.10;99.90;;;;;;5067294;28;20173;-68
2021/12/22 03:10:21;;;;;;;4.18;2.78;;;-4.10;99.90;;;;;;5067430;28;20200;-67
2021/12/22 03:12:55;;;;;;;5.18;4.10;;;-4.10;99.90;;;;;;5049983;28;20253;-68
2021/12/22 03:15:21;;;;;;;3.35;2.95;;;-4.10;99.90;;;;;;5073975;28;20177;-66
2021/12/22 03:17:49;;;;;;;3.50;2.40;;;-4.10;99.90;;;;;;5087107;28;20421;-70
2021/12/22 03:20:16;;;;;;;1.90;1.80;;;-4.10;99.90;;;;;;5087302;28;20165;-67
2021/12/22 03:22:44;;;;;;;2.17;2.08;;;-4.10;99.90;;;;;;5087398;28;20165;-69
2021/12/22 03:25:15;;;;;;;4.68;4.38;;;-4.10;99.90;;;;;;5087471;28;20345;-67
2021/12/22 03:27:47;;;;;;;1.65;1.65;;;-4.20;99.90;;;;;;5086934;28;20173;-71
2021/12/22 03:30:15;;;;;;;2.28;2.13;;;-4.20;99.90;;;;;;5086961;28;20274;-71
2021/12/22 03:32:41;;;;;;;3.08;2.83;;;-4.20;99.90;;;;;;5087054;28;20172;-68
2021/12/22 03:35:08;;;;;;;4.07;3.83;;;-4.30;99.90;;;;;;5087074;28;20180;-66
2021/12/22 03:37:34;;;;;;;2.08;1.98;;;-4.30;99.90;;;;;;5086834;28;20407;-68
2021/12/22 03:39:59;;;;;;;9.63;3.60;;;-4.40;99.90;;;;;;5087080;28;20176;-67
2021/12/22 03:42:25;;;;;;;3.43;3.23;;;-4.50;99.90;;;;;;5087050;28;20214;-71
2021/12/22 03:44:51;;;;;;;4.47;4.10;;;-4.50;99.90;;;;;;5087021;28;20423;-68
2021/12/22 03:47:16;;;;;;;2.70;2.47;;;-4.50;99.90;;;;;;5086730;28;20161;-69
2021/12/22 03:49:42;;;;;;;2.20;1.93;;;-4.50;99.90;;;;;;5086895;28;20180;-67
2021/12/22 03:52:08;;;;;;;4.77;4.37;;;-4.50;99.90;;;;;;5086807;28;20286;-67
2021/12/22 03:54:34;;;;;;;1.50;1.50;;;-4.50;99.90;;;;;;5086870;28;20187;-70
2021/12/22 03:56:59;;;;;;;3.80;2.20;;;-4.50;99.90;;;;;;5086631;28;20442;-68
2021/12/22 03:59:26;;;;;;;3.60;3.40;;;-4.50;99.90;;;;;;5086793;28;20227;-69
2021/12/22 04:01:52;;;;;;;5.10;4.80;;;-4.60;99.90;;;;;;5086756;28;20277;-66
2021/12/22 04:04:18;;;;;;;1.70;1.60;;;-4.60;99.90;;;;;;5086703;28;20246;-67
2021/12/22 04:06:47;;;;;;;2.38;2.28;;;-4.60;99.90;;;;;;5086513;28;20304;-67
2021/12/22 04:09:15;;;;;;;2.65;2.55;;;-4.50;99.90;;;;;;5090257;28;20174;-69
2021/12/22 04:11:41;;;;;;;1.63;1.63;;;-4.50;99.90;;;;;;5091066;28;20176;-67
2021/12/22 04:14:07;;;;;;;4.00;3.65;;;-4.50;99.90;;;;;;5090851;28;20180;-69
2021/12/22 04:16:33;;;;;;;4.07;3.88;;;-4.50;99.90;;;;;;5073683;28;20173;-67
2021/12/22 04:18:59;;;;;;;2.17;2.07;;;-4.50;99.90;;;;;;5070643;28;20225;-70
2021/12/22 04:21:25;;;;;;;3.33;3.20;;;-4.40;99.90;;;;;;5070818;28;20401;-69
2021/12/22 04:23:50;;;;;;;1.83;1.73;;;-4.40;99.90;;;;;;5070653;28;20243;-68
2021/12/22 04:26:16;;;;;;;7.37;4.50;;;-4.40;99.90;;;;;;5070421;28;20384;-68
2021/12/22 04:28:42;;;;;;;2.80;2.60;;;-4.40;99.90;;;;;;5070624;28;20185;-67
2021/12/22 04:31:08;;;;;;;3.30;3.00;;;-4.80;99.90;;;;;;5070445;28;20165;-70
2021/12/22 04:33:34;;;;;;;3.13;2.87;;;-4.40;99.90;;;;;;5070440;28;20216;-67
2021/12/22 04:35:59;;;;;;;3.20;2.87;;;-4.50;99.90;;;;;;5070572;28;20483;-70
2021/12/22 04:38:27;;;;;;;2.53;2.40;;;-4.50;99.90;;;;;;5070089;28;20208;-67
2021/12/22 04:40:52;;;;;;;2.30;2.15;;;-4.50;99.90;;;;;;5070307;28;20378;-70
2021/12/22 04:43:18;;;;;;;9.13;6.00;;;-4.70;99.90;;;;;;5070262;28;20191;-68
2021/12/22 04:45:44;;;;;;;1.90;1.77;;;-4.70;99.90;;;;;;5052765;28;20249;-69
2021/12/22 04:48:10;;;;;;;2.60;2.50;;;-4.70;99.90;;;;;;5069887;28;20256;-67
2021/12/22 04:50:36;;;;;;;2.63;2.50;;;-4.80;99.90;;;;;;5070026;28;20413;-69
2021/12/22 04:53:10;;;;;;;3.15;3.00;;;-4.80;99.90;;;;;;5069811;28;20211;-68
2021/12/22 04:55:35;;;;;;;2.30;2.20;;;-4.80;99.90;;;;;;5053522;28;20247;-69
2021/12/22 04:58:02;;;;;;;3.53;3.30;;;-4.80;99.90;;;;;;5069613;28;20324;-67
2021/12/22 05:00:32;;;;;;;1.45;1.45;;;-4.80;99.90;;;;;;5069864;28;20165;-69
2021/12/22 05:02:58;;;;;;;5.72;3.95;;;-4.80;99.90;;;;;;5069597;28;20253;-66
2021/12/22 05:05:24;;;;;;;2.87;2.50;;;-4.80;99.90;;;;;;5069782;28;20200;-67
2021/12/22 05:07:50;;;;;;;3.38;3.17;;;-4.80;99.90;;;;;;5069516;28;20233;-70
2021/12/22 05:10:17;;;;;;;3.63;3.43;;;-4.80;99.90;;;;;;5069789;28;20255;-67
2021/12/22 05:12:44;;;;;;;3.38;3.20;;;-4.80;99.90;;;;;;5069645;28;20392;-69
2021/12/22 05:15:10;;;;;;;7.43;4.70;;;-4.80;99.90;;;;;;5074726;28;20200;-67
2021/12/22 05:20:08;;;;;;;1.17;1.17;;;-4.90;99.90;;;;;;5088987;28;20184;-68
2021/12/22 05:22:34;;;;;;;3.17;3.07;;;-5.00;99.90;;;;;;5089790;28;20161;-69
2021/12/22 05:25:02;;;;;;;4.73;1.50;;;-4.90;99.90;;;;;;5089325;28;20675;-70
2021/12/22 05:27:28;;;;;;;2.58;2.35;;;-5.00;99.90;;;;;;5089232;28;20153;-70
2021/12/22 05:29:54;;;;;;;6.28;3.03;;;-5.00;99.90;;;;;;5089467;28;20265;-67
2021/12/22 05:32:22;;;;;;;3.43;3.27;;;-5.00;99.90;;;;;;5089412;28;20176;-70
2021/12/22 05:34:48;;;;;;;3.05;2.95;;;-5.00;99.90;;;;;;5089206;28;20415;-65
2021/12/22 05:37:14;;;;;;;6.10;4.70;;;-5.00;99.90;;;;;;5089057;28;20253;-68
2021/12/22 05:39:39;;;;;;;4.70;3.07;;;-5.00;99.90;;;;;;5089114;28;20216;-66
2021/12/22 05:42:06;;;;;;;1.97;1.80;;;-5.10;99.90;;;;;;5071676;28;20193;-70
2021/12/22 05:44:31;;;;;;;2.20;2.10;;;-5.10;99.90;;;;;;5089108;28;20242;-67
2021/12/22 05:46:57;;;;;;;2.77;2.63;;;-5.10;99.90;;;;;;5088880;28;20161;-69
2021/12/22 05:49:23;;;;;;;3.83;3.33;;;-5.10;99.90;;;;;;5089046;28;20165;-68
2021/12/22 05:51:48;;;;;;;4.93;3.80;;;-5.10;99.90;;;;;;5089076;28;20172;-68
2021/12/22 05:54:14;;;;;;;1.67;1.60;;;-5.10;99.90;;;;;;5088932;28;20226;-67
2021/12/22 05:56:40;;;;;;;2.00;2.00;;;-5.10;99.90;;;;;;5088653;28;20161;-68
2021/12/22 05:59:05;;;;;;;2.43;1.20;;;-5.10;99.90;;;;;;5088892;28;20211;-70
2021/12/22 06:01:32;;;;;;;4.10;3.77;;;-5.00;99.90;;;;;;5088894;28;20161;-68
2021/12/22 06:03:59;;;;;;;2.25;2.13;;;-5.00;99.90;;;;;;5088843;28;20257;-70
2021/12/22 06:06:26;;;;;;;2.28;2.17;;;-5.00;99.90;;;;;;5088591;28;20169;-69
2021/12/22 06:08:52;;;;;;;5.38;3.85;;;-5.00;99.90;;;;;;5088739;28;20181;-69
2021/12/22 06:11:17;;;;;;;3.10;2.20;;;-5.00;99.90;;;;;;5088654;28;20161;-68
2021/12/22 06:13:43;;;;;;;4.03;2.23;;;-5.00;99.90;;;;;;5088579;28;20446;-68
2021/12/22 06:16:09;;;;;;;5.90;4.00;;;-5.00;99.90;;;;;;5075171;28;20296;-67
2021/12/22 06:18:41;;;;;;;5.00;3.47;;;-4.90;99.90;;;;;;5068236;28;20362;-68
2021/12/22 06:21:07;;;;;;;2.13;1.92;;;-4.90;99.90;;;;;;5068439;28;20317;-68
2021/12/22 06:23:33;;;;;;;2.20;2.10;;;-4.90;99.90;;;;;;5068304;28;20181;-68
2021/12/22 06:25:58;;;;;;;4.93;4.43;;;-4.90;99.90;;;;;;5068587;28;20165;-68
2021/12/22 06:28:24;;;;;;;3.57;3.33;;;-4.90;99.90;;;;;;5068131;28;20161;-67
2021/12/22 06:30:49;;;;;;;4.00;3.80;;;-4.90;99.90;;;;;;5067709;28;20166;-70
2021/12/22 06:33:15;;;;;;;7.50;5.20;;;-4.90;99.90;;;;;;5067701;28;20247;-67
2021/12/22 06:35:41;;;;;;;6.37;5.77;;;-5.00;99.90;;;;;;5068268;28;20451;-68
2021/12/22 06:38:07;;;;;;;5.20;3.90;;;-5.00;99.90;;;;;;5067790;28;20276;-64
2021/12/22 06:40:33;;;;;;;2.05;2.05;;;-5.00;99.90;;;;;;5068048;28;20219;-68
2021/12/22 06:42:59;;;;;;;3.70;3.50;;;-5.00;99.90;;;;;;5067981;28;20169;-67
2021/12/22 06:45:25;;;;;;;8.63;5.13;;;-5.00;99.90;;;;;;5068026;28;20178;-72
2021/12/22 06:47:52;;;;;;;4.55;4.35;;;-5.00;99.90;;;;;;5067467;28;20420;-68
2021/12/22 06:50:18;;;;;;;3.40;3.20;;;-5.00;99.90;;;;;;5067765;28;20273;-68
2021/12/22 06:52:44;;;;;;;2.15;2.13;;;-5.00;99.90;;;;;;5067971;28;20388;-69
2021/12/22 06:55:10;;;;;;;3.43;3.30;;;-5.00;99.90;;;;;;5067676;28;20205;-68
2021/12/22 06:57:36;;;;;;;6.07;5.27;;;-5.00;99.90;;;;;;5067515;28;20402;-69
2021/12/22 07:00:04;;;;;;;4.67;4.27;;;-5.00;99.90;;;;;;5067874;28;20414;-69
2021/12/22 07:02:35;;;;;;;2.22;2.00;;;-5.10;99.90;;;;;;5067525;28;20498;-70
2021/12/22 07:05:00;;;;;;;3.20;2.55;;;-5.10;99.90;;;;;;5050204;28;20192;-68
2021/12/22 07:07:26;;;;;;;4.03;3.70;;;-5.10;99.90;;;;;;5067306;28;20229;-70
2021/12/22 07:09:52;;;;;;;3.10;3.00;;;-5.10;99.90;;;;;;5067603;28;20165;-68
2021/12/22 07:12:17;;;;;;;1.70;1.60;;;-5.10;99.90;;;;;;5067350;28;20173;-70
2021/12/22 07:14:43;;;;;;;4.27;3.13;;;-5.10;99.90;;;;;;5068884;28;20208;-69
2021/12/22 07:17:10;;;;;;;1.60;1.57;;;-5.10;99.90;;;;;;5087646;28;20385;-68
2021/12/22 07:19:36;;;;;;;4.20;4.00;;;-5.10;99.90;;;;;;5087131;28;20209;-71
2021/12/22 07:22:01;;;;;;;8.18;3.13;;;-5.10;99.90;;;;;;5087226;28;20274;-69
2021/12/22 07:24:27;;;;;;;4.77;2.90;;;-5.10;99.90;;;;;;5087215;28;20248;-69
2021/12/22 07:26:52;;;;;;;3.93;3.73;;;-5.00;99.90;;;;;;5086943;28;20161;-68
2021/12/22 07:29:18;;;;;;;2.83;2.73;;;-5.00;99.90;;;;;;5086047;28;20174;-70
2021/12/22 07:31:44;;;;;;;3.57;2.80;;;-5.00;99.90;;;;;;5087183;28;20232;-68
2021/12/22 07:34:20;;;;;;;5.23;3.70;;;-5.00;99.90;;;;;;5086775;28;20188;-69
2021/12/22 07:37:03;;;;;;;3.83;3.60;;;-5.00;99.90;;;;;;5086851;28;20172;-68
2021/12/22 07:39:28;;;;;;;3.00;2.85;;;-4.90;99.90;;;;;;5087002;28;20309;-68
2021/12/22 07:41:54;;;;;;;8.23;5.77;;;-4.80;99.90;;;;;;5087040;28;20180;-67
2021/12/22 07:44:20;;;;;;;3.53;2.97;;;-4.70;99.90;;;;;;5086563;28;20401;-67
2021/12/22 07:46:46;;;;;;;8.13;4.73;;;-4.60;99.90;;;;;;5086396;28;20411;-66
2021/12/22 07:49:11;;;;;;;3.60;3.40;;;-4.50;99.90;;;;;;5086713;28;20416;-70
2021/12/22 07:51:37;;;;;;;4.20;3.90;;;-4.40;99.90;;;;;;5086914;28;20168;-67
2021/12/22 07:54:04;;;;;;;2.17;2.03;;;-4.30;99.90;;;;;;5086719;28;20188;-69
2021/12/22 07:56:29;;;;;;;3.45;3.35;;;-4.30;99.90;;;;;;5086752;28;20188;-67
2021/12/22 07:58:55;;;;;;;4.23;4.03;;;-4.30;99.90;;;;;;5086676;28;20421;-70
2021/12/22 08:01:21;;;;;;;8.47;6.17;;;-4.10;99.90;;;;;;5086766;28;20466;-66
2021/12/22 08:03:47;;;;;;;4.03;2.85;;;-4.00;99.90;;;;;;5086497;28;20204;-69
2021/12/22 08:06:15;;;;;;;6.10;5.63;;;-3.90;99.90;;;;;;5086692;28;20196;-67
2021/12/22 08:08:40;;;;;;;4.50;2.72;;;-3.70;99.90;;;;;;5086582;28;20184;-66
2021/12/22 08:11:07;;;;;;;2.77;2.60;;;-3.60;99.90;;;;;;5086644;28;20180;-66
2021/12/22 08:13:33;;;;;;;4.88;4.53;;;-3.60;99.90;;;;;;5086369;28;20438;-69
2021/12/22 08:15:59;;;;;;;7.18;4.85;;;-3.50;99.90;;;;;;5074411;28;20181;-68
2021/12/22 08:18:24;;;;;;;7.80;4.00;;;-3.30;99.90;;;;;;5066018;28;20221;-66
2021/12/22 08:20:50;;;;;;;17.37;5.47;;;-2.90;99.90;;;;;;5066610;28;20165;-68
2021/12/22 08:23:18;;;;;;;5.87;4.33;;;-2.70;99.90;;;;;;5049099;28;20198;-66
2021/12/22 08:25:45;;;;;;;5.38;4.97;;;-2.50;99.90;;;;;;5080112;28;20407;-65
2021/12/22 08:28:10;;;;;;;5.97;5.40;;;-2.20;99.90;;;;;;5106394;27;20177;-66
2021/12/22 08:30:37;;;;;;;10.07;6.37;;;-2.00;99.90;;;;;;5106891;27;20415;-68
2021/12/22 08:33:09;;;;;;;8.55;7.93;;;-1.60;99.90;;;;;;5107089;27;20190;-66
2021/12/22 08:38:50;;;;;;;18.10;9.70;;;-1.10;99.90;;;;;;5106609;27;20191;-68
2021/12/22 08:41:05;;;;;;;28.67;8.55;;;0.30;99.90;;;;;;5106571;27;20233;-71
2021/12/22 08:43:31;;;;;;;10.67;6.37;;;1.00;99.90;;;;;;5106637;27;20188;-68
2021/12/22 08:45:57;;;;;;;11.03;6.97;;;1.50;99.90;;;;;;5088995;28;20160;-71
2021/12/22 08:48:22;;;;;;;10.20;8.90;;;2.00;99.90;;;;;;5106362;27;20244;-70
2021/12/22 08:50:48;;;;;;;9.07;7.77;;;2.50;99.90;;;;;;5106584;27;20208;-71
2021/12/22 08:53:14;;;;;;;7.40;5.88;;;3.10;99.90;;;;;;5106512;27;20261;-70
2021/12/22 08:55:40;;;;;;;13.85;8.75;;;3.70;99.90;;;;;;5108810;27;20180;-71
2021/12/22 08:58:06;;;;;;;11.20;8.83;;;4.20;99.90;;;;;;5092531;27;20204;-69
2021/12/22 09:00:33;;;;;;;13.73;8.40;;;4.60;99.90;;;;;;5110232;27;20164;-71
2021/12/22 09:02:59;;;;;;;10.93;8.38;;;4.80;99.90;;;;;;5110132;27;20187;-70
2021/12/22 09:05:25;;;;;;;7.53;6.60;;;5.10;99.90;;;;;;5110126;27;20227;-71
2021/12/22 09:07:51;;;;;;;11.87;6.23;;;5.20;99.90;;;;;;5110049;27;20415;-70
2021/12/22 09:10:17;;;;;;;9.40;6.60;;;5.40;99.90;;;;;;5110043;27;20162;-72
2021/12/22 09:12:42;;;;;;;10.68;7.40;;;5.70;98.70;;;;;;5110317;27;20555;-71
2021/12/22 09:15:09;;;;;;;8.50;6.50;;;5.90;97.10;;;;;;5104739;27;20191;-72
2021/12/22 09:17:35;;;;;;;8.57;6.97;;;6.20;98.00;;;;;;5089184;28;20170;-73
2021/12/22 09:20:00;;;;;;;8.40;5.93;;;6.60;96.80;;;;;;5089562;28;20548;-70
2021/12/22 09:22:26;;;;;;;7.63;6.93;;;6.80;96.00;;;;;;5089640;28;20380;-71
2021/12/22 09:24:52;;;;;;;9.03;7.30;;;7.10;95.00;;;;;;5089351;28;20475;-69
2021/12/22 09:27:18;;;;;;;6.80;6.20;;;7.30;93.50;;;;;;5089158;28;20172;-69
2021/12/22 09:29:44;;;;;;;8.60;7.70;;;7.30;93.30;;;;;;5089424;28;20485;-72
2021/12/22 09:32:14;;;;;;;10.83;7.17;;;7.30;93.20;;;;;;5071836;28;20457;-72
2021/12/22 09:34:44;;;;;;;7.83;6.60;;;7.40;92.30;;;;;;5089554;28;20418;-69
2021/12/22 09:37:10;;;;;;;13.30;8.33;;;7.40;92.90;;;;;;5088827;28;20460;-69
2021/12/22 09:47:28;;;;;;;6.83;5.63;;;7.40;91.50;;;;;;5479474;22;20547;-62
2021/12/22 09:50:09;;;;;;;8.17;6.00;;;7.30;91.50;;;;;;4996264;28;20489;-62
2021/12/22 09:52:36;;;;;;;9.97;7.07;;;7.30;91.60;;;;;;4996096;28;20411;-62
2021/12/22 09:55:03;;;;;;;10.70;6.10;;;7.40;91.40;;;;;;4996031;28;20415;-61
2021/12/22 09:57:30;;;;;;;11.07;7.50;;;7.50;91.40;;;;;;4995638;28;20871;-63
2021/12/22 09:59:58;;;;;;;7.70;6.50;;;7.70;91.80;;;;;;4995924;28;20429;-62
2021/12/22 10:02:29;;;;;;;9.30;6.70;;;7.70;91.00;;;;;;4995616;28;20422;-61
2021/12/22 10:04:58;;;;;;;8.40;6.30;;;7.60;90.90;;;;;;5004126;28;20456;-63
2021/12/22 10:07:27;;;;;;;8.13;6.40;;;7.60;90.70;;;;;;4998793;28;20931;-62
2021/12/22 10:09:55;;;;;;;8.13;5.93;;;7.50;90.90;;;;;;4996060;28;20908;-61
2021/12/22 10:12:24;;;;;;;6.30;5.37;;;7.40;90.50;;;;;;4994510;28;20414;-62
2021/12/22 10:15:10;;;;;;;9.60;6.20;;;7.40;90.70;;;;;;4995504;28;20501;-62
2021/12/22 10:17:37;;;;;;;7.90;6.10;;;7.70;91.10;;;;;;4995864;28;20412;-62
2021/12/22 10:20:08;;;;;;;7.37;6.63;;;8.00;90.40;;;;;;4995757;28;20438;-61
2021/12/22 10:22:43;;;;;;;7.50;6.70;;;8.00;87.90;;;;;;4995152;28;20472;-62
2021/12/22 10:25:14;;;;;;;5.93;5.03;;;8.20;88.70;;;;;;4995184;28;20479;-61
2021/12/22 10:27:42;;;;;;;30.77;15.40;;;8.30;88.90;;;;;;4995215;28;20848;-63
2021/12/22 10:30:36;;;;;;;21.90;14.80;;;8.40;88.30;;;;;;4995235;28;20402;-62
2021/12/22 10:33:10;;;;;;;13.90;7.73;;;8.60;88.50;;;;;;4993584;28;21034;-63
2021/12/22 10:35:38;;;;;;;10.20;8.33;;;8.70;88.50;;;;;;4995349;28;20414;-63
2021/12/22 10:38:05;;;;;;;8.87;6.90;;;8.70;88.40;;;;;;4995184;28;20560;-62
2021/12/22 10:40:32;;;;;;;8.83;7.57;;;8.60;88.00;;;;;;4995279;28;20393;-62
2021/12/22 10:42:59;;;;;;;11.27;8.40;;;8.50;87.70;;;;;;4994928;28;20497;-61
2021/12/22 10:45:29;;;;;;;10.17;6.70;;;8.30;88.50;;;;;;4995320;28;20497;-62
2021/12/22 10:50:44;;;;;;;7.57;6.77;;;8.10;89.20;;;;;;4995913;28;20399;-62
2021/12/22 10:53:14;;;;;;;6.43;5.83;;;8.00;89.60;;;;;;4994784;28;20496;-63
2021/12/22 10:55:47;;;;;;;8.37;6.40;;;7.70;89.70;;;;;;4995380;28;20388;-62
2021/12/22 10:58:32;;;;;;;8.67;6.60;;;7.50;89.20;;;;;;4994610;28;20861;-65
2021/12/22 11:01:11;;;;;;;7.90;7.10;;;7.50;88.70;;;;;;4995392;28;20391;-62
2021/12/22 11:03:47;;;;;;;9.50;7.23;;;7.40;89.20;;;;;;4995398;28;20450;-62
2021/12/22 11:06:27;;;;;;;7.15;6.32;;;7.30;90.20;;;;;;4995339;28;20427;-63
2021/12/22 11:08:53;;;;;;;7.57;6.10;;;7.20;90.30;;;;;;4994866;28;20258;-61
2021/12/22 11:11:19;;;;;;;7.27;6.00;;;6.80;90.90;;;;;;4994488;28;20941;-62
2021/12/22 11:13:44;;;;;;;16.33;12.33;;;6.40;90.80;;;;;;4994659;28;20258;-61
2021/12/22 11:16:14;;;;;;;7.87;7.10;;;5.90;91.00;;;;;;4994376;28;20522;-62
2021/12/22 11:18:40;;;;;;;8.82;7.40;;;5.30;91.40;;;;;;4993852;28;20293;-66
2021/12/22 11:21:09;;;;;;;8.90;7.00;;;4.90;92.00;;;;;;4994010;28;20189;-63
2021/12/22 11:23:35;;;;;;;15.73;9.10;;;4.50;92.20;;;;;;4994718;28;20182;-62
2021/12/22 11:26:02;;;;;;;10.70;7.13;;;4.00;93.70;;;;;;4994422;28;20223;-63
2021/12/22 11:28:29;;;;;;;9.40;6.63;;;3.80;94.00;;;;;;4994067;28;20592;-65
2021/12/22 11:30:56;;;;;;;6.80;6.10;;;3.50;94.40;;;;;;4994303;28;20246;-63
2021/12/22 11:33:23;;;;;;;13.70;8.48;;;3.20;95.00;;;;;;4993680;28;20168;-63
2021/12/22 11:35:50;;;;;;;7.22;6.15;;;3.00;95.40;;;;;;4994253;28;20199;-63
2021/12/22 11:38:16;;;;;;;12.15;6.28;;;2.60;96.20;;;;;;4994268;28;20207;-64
2021/12/22 11:40:51;;;;;;;8.75;5.75;;;2.40;96.60;;;;;;4994164;28;20637;-63
2021/12/22 11:43:16;;;;;;;7.07;5.55;;;2.30;97.30;;;;;;4993914;28;20170;-64
2021/12/22 11:45:44;;;;;;;8.87;5.93;;;2.10;98.00;;;;;;4993396;28;20175;-64
2021/12/22 11:48:10;;;;;;;11.70;5.53;;;2.00;98.50;;;;;;4992120;28;20465;-65
2021/12/22 11:50:36;;;;;;;5.90;5.40;;;1.90;98.90;;;;;;4993291;28;20175;-64
2021/12/22 11:53:08;;;;;;;8.77;7.53;;;1.90;99.30;;;;;;4993418;28;20503;-64
2021/12/22 11:55:46;;;;;;;7.65;6.22;;;1.90;99.20;;;;;;4994048;28;20179;-64
2021/12/22 11:58:30;;;;;;;11.95;8.18;;;1.90;99.40;;;;;;4993353;28;20230;-64
2021/12/22 12:00:56;;;;;;;7.25;6.55;;;1.90;99.80;;;;;;4992020;28;20171;-64
2021/12/22 12:03:40;;;;;;;11.90;5.60;;;1.90;99.90;;;;;;4991517;28;20176;-63
2021/12/22 12:06:25;;;;;;;8.85;5.18;;;1.80;99.90;;;;;;4991873;28;20178;-65
2021/12/22 12:08:56;;;;;;;7.45;6.45;;;1.80;99.90;;;;;;4991885;28;20205;-64
2021/12/22 12:11:42;;;;;;;9.27;6.07;;;1.80;99.90;;;;;;4991493;28;20683;-65
2021/12/22 12:14:32;;;;;;;7.45;4.78;;;1.80;99.90;;;;;;4992440;28;20159;-64
2021/12/22 12:23:29;;;;;;;5.40;5.00;;;1.90;99.90;;;;;;4974128;28;20645;-63
2021/12/22 12:26:05;;;;;;;8.60;5.65;;;2.00;99.90;;;;;;4993747;28;20587;-64
2021/12/22 12:28:46;;;;;;;8.38;6.78;;;2.10;99.90;;;;;;4993776;28;20244;-65
2021/12/22 12:31:11;;;;;;;9.70;5.68;;;2.20;99.90;;;;;;4996192;28;20179;-64
2021/12/22 12:33:43;;;;;;;7.17;4.87;;;2.10;99.90;;;;;;4997439;28;20178;-63
2021/12/22 12:36:11;;;;;;;14.27;8.60;;;2.20;99.90;;;;;;4997507;28;20191;-64
2021/12/22 12:38:40;;;;;;;15.55;7.50;;;2.20;99.90;;;;;;4997061;28;20274;-62
2021/12/22 12:41:21;;;;;;;5.88;5.15;;;2.20;99.90;;;;;;4996886;28;20258;-63
2021/12/22 12:43:55;;;;;;;4.68;4.20;;;2.20;99.90;;;;;;4996159;28;20179;-64
2021/12/22 12:46:21;;;;;;;9.82;6.15;;;2.20;99.90;;;;;;4997142;28;20233;-64
2021/12/22 12:48:49;;;;;;;7.70;5.57;;;2.20;99.90;;;;;;4997432;28;20172;-63
2021/12/22 12:51:25;;;;;;;8.13;7.28;;;2.30;99.90;;;;;;4996734;28;20171;-64
2021/12/22 12:53:51;;;;;;;8.77;6.90;;;2.30;99.90;;;;;;4997514;28;20627;-65
2021/12/22 12:56:28;;;;;;;8.47;6.70;;;2.40;99.90;;;;;;4995503;28;20330;-64
2021/12/22 12:58:56;;;;;;;8.32;5.55;;;2.50;99.90;;;;;;4996061;28;20461;-63
2021/12/22 13:01:46;;;;;;;5.93;5.20;;;2.50;99.90;;;;;;4996766;28;20179;-63
2021/12/22 13:04:23;;;;;;;8.80;5.30;;;2.50;99.90;;;;;;4997126;28;20174;-63
2021/12/22 13:07:00;;;;;;;9.82;5.50;;;2.60;99.90;;;;;;4997051;28;20183;-63
2021/12/22 13:09:29;;;;;;;6.53;5.10;;;2.60;99.90;;;;;;4997199;28;20519;-63
2021/12/22 13:12:11;;;;;;;6.95;6.25;;;2.60;99.90;;;;;;4996713;28;20195;-61
2021/12/22 13:17:29;;;;;;;6.30;5.25;;;2.70;99.90;;;;;;4996853;28;20206;-62
2021/12/22 13:19:56;;;;;;;6.63;5.95;;;2.60;99.90;;;;;;4996333;28;20254;-61
2021/12/22 13:22:30;;;;;;;9.07;7.28;;;2.60;99.90;;;;;;4995982;28;20229;-63
2021/12/22 13:25:07;;;;;;;8.88;5.70;;;2.60;99.90;;;;;;4994461;28;20254;-63
2021/12/22 13:27:34;;;;;;;5.13;4.68;;;2.60;99.90;;;;;;4995253;28;20199;-63